AirNav   Pilot Hours Calculator
 
 1431 users online  

JY31 Wide Sky Airpark
Bridgeton, New Jersey, USA

GOING TO BRIDGETON?


FAA INFORMATION EFFECTIVE 19 MAY 2022

Location

FAA Identifier: JY31
Lat/Long: 39-26-48.4100N 075-18-47.6900W
39-26.806833N 075-18.794833W
39.4467806,-75.3132472
(estimated)
Elevation: 100 ft. / 30.5 m (surveyed)
Variation: 11W (1985)
From city: 3 miles NW of BRIDGETON, NJ
Time zone: UTC -4 (UTC -5 during Standard Time)
Zip code: 08302

Airport Operations

Airport use: Private use. Permission required prior to landing
Activation date: 02/1978
Control tower: no
ARTCC: NEW YORK CENTER
FSS: MILLVILLE FLIGHT SERVICE STATION
Attendance: UNATNDD
Wind indicator: yes
Segmented circle: no
Lights: PHONE REQ; FOR LIRL RY 04/22 CALL 609-670-1434.

Airport Communications

WX ASOS at MIV (12 nm SE): 119.6 (856-327-3455)
WX AWOS-3 at 33N (19 nm SW): 120.125 (302-735-9754)
WX ASOS at ILG (19 nm NW): 123.95 (302-328-1536)
WX AWOS-3 at EVY (20 nm W): 132.325 (302-378-2063)

Nearby radio navigation aids

VOR radial/distance  VOR name  Freq  Var
OODr192/11.4WOODSTOWN VORTAC112.8010W
ENOr045/16.0SMYRNA VORTAC111.4009W
VCNr261/16.9CEDAR LAKE VOR/DME115.2010W
DQOr146/19.4DUPONT VORTAC114.0010W
SIEr320/31.8SEA ISLE VORTAC114.8009W
MXEr159/32.7MODENA VORTAC113.2009W
ACYr279/34.1ATLANTIC CITY VORTAC108.6010W
ATRr002/38.5WATERLOO VOR/DME112.6009W

 
NDB name  Hdg/Dist  Freq  Var  ID
RAINBOW293/8.436311WRNB .-. -. -...

Airport Services

Parking: tiedowns

Runway Information

Runway 4/22

Dimensions: 2550 x 150 ft. / 777 x 46 m
Surface: turf, in good condition
Runway edge lights: low intensity
RUNWAY 4  RUNWAY 22
Traffic pattern: leftleft
Runway end identifier lights: nono
Obstructions: 66 ft. trees, 550 ft. from runwaynone

Airport Ownership and Management from official FAA records

Ownership: Privately-owned
Owner: CHEROKEE REALTY CORP.
440 FRONT ST, P.O. BOX 617
ELMER, NJ 68318
Phone 609-670-1434
Manager: CHARLES NOCCO
440 FRONT ST POT 617
ELMER, NJ 08318
Phone 609-670-1434

Airport Operational Statistics

Aircraft based on the field: 4
Single engine airplanes: 4
    

Additional Remarks

ARPT MAY BE CLSD DURING FREEZING AND THAWING PERIODS DUE TO RWY CONDITIONS.
FOR CD CTC PHILADELPHIA APCH AT 800-354-9884.

Instrument Procedures

There are no published instrument procedures at JY31.

Some nearby airports with instrument procedures:

KMIV - Millville Municipal Airport (12 nm SE)
29N - Kroelinger Airport (13 nm E)
7N7 - Spitfire Aerodrome (18 nm N)
33N - Delaware Airpark (19 nm SW)
KILG - New Castle Airport (19 nm NW)
KEVY - Summit Airport (20 nm W)
 
Loc | Ops | Rwys | IFR | FBO | Links
Com | Nav | Svcs | Stats | Notes
Area around JY31 (Wide Sky Airpark)
 
Road maps at: MapQuest Bing Google
 
Aerial photo
No photo
 
Sectional chart

 
Airport distance calculator
Flying to Wide Sky Airpark? Find the distance to fly.

From to JY31

Sunrise and sunset
Times for 23-May-2022
 Local
(UTC-4)
 Zulu
(UTC)
Morning civil twilight05:1109:11
Sunrise05:4209:42
Sunset20:1400:14
Evening civil twilight20:4500:45

Current date and time
Zulu (UTC)  23-May-2022 22:05:30
Local (UTC-4)  23-May-2022 18:05:30
 
METAR
KMIV 
12nm SE 
232154Z AUTO 15007KT 10SM CLR 21/12 A3016 RMK AO2 SLP210 T02110117
KILG 
19nm NW 
232151Z 33005KT 10SM FEW090 23/11 A3017 RMK AO2 SLP217 T02280106 $
K33N 
19nm SW 
232155Z AUTO VRB04KT 10SM FEW075 22/12 A3016 RMK A01
KDOV 
21nm S 
232156Z AUTO 36007KT 10SM SCT150 22/09 A3015 RMK AO2 SLP213 T02190087 $
TAF
KMIV 
12nm SE 
231734Z 2318/2418 02005KT P6SM SCT200 FM232100 11006KT P6SM SCT200 FM240000 VRB05KT P6SM BKN100 FM240600 VRB03KT P6SM VCSH OVC060 FM241400 11005KT P6SM BKN060
KILG 
19nm NW 
231734Z 2318/2418 35008KT P6SM SCT200 FM240000 VRB05KT P6SM BKN100 FM240600 VRB03KT P6SM OVC060 FM241500 11009KT P6SM BKN060
NOTAMs
Click for the latest NOTAMs
NOTAMs are issued by the DoD/FAA and will open in a separate window not controlled by AirNav.

 

 
 

Would you like to see your business listed on this page?

 If your business provides an interesting product or service to pilots, flight crews, aircraft, or users of the Wide Sky Airpark, you should consider listing it here.  To start the listing process, click on the button below
 
Add a business
 

Other Pages about Wide Sky Airpark

Update a link
 
Copyright © AirNav, LLC. All rights reserved. Privacy Policy  Contact